Site contains unofficial IBTrACS data. Visit the IBTrACS Website to access archived data.

1957 NOT_NAMED (1957082S15118)


IBTrACS version v04r00. Visit IBTrACS website for data access.
Please direct all questions to the IBTrACS Q and A forum

Storm track - Intensity - Wind Radii - Intensity Data - Source Data - All data

Summary Information

Storm ID 1957082S15118
Start Mar 22 23Z
End Mar 29 23Z
ATCF IDs ,SH281957
Track status Best track data.

Storm track plot

Map of storm track

Intensity plots

No Intensity information for this storm


Radial wind information

No radial wind information for this storm


Position and Intensity Table

BASIN ISO_TIME_________ NATURE LAT LON
degrees north degrees east
SI 1957-03-22 23:00:00 NR -14.80 117.50
SI 1957-03-23 00:00:00 TS -14.88 117.48
SI 03:00:00 TS -15.09 117.37
SI 06:00:00 TS -15.29 117.27
SI 09:00:00 TS -15.49 117.17
SI 11:00:00 TS -15.62 117.11
SI 12:00:00 TS -15.69 117.10
SI 15:00:00 TS -15.89 117.10
SI 18:00:00 TS -16.09 117.08
SI 21:00:00 TS -16.29 116.96
SI 23:00:00 TS -16.42 116.80
SI 1957-03-24 00:00:00 TS -16.49 116.70
SI 03:00:00 TS -16.70 116.30
SI 06:00:00 TS -16.91 115.82
SI 09:00:00 TS -17.12 115.35
SI 11:00:00 TS -17.23 115.03
SI 12:00:00 TS -17.28 114.89
SI 15:00:00 TS -17.38 114.46
SI 18:00:00 TS -17.40 114.02
SI 21:00:00 TS -17.36 113.56
SI 23:00:00 TS -17.28 113.20
SI 1957-03-25 00:00:00 TS -17.21 112.99
SI 01:00:00 TS -17.13 112.77
SI 03:00:00 TS -16.93 112.29
SI 06:00:00 TS -16.60 111.49
SI 09:00:00 TS -16.31 110.65
SI 11:00:00 TS -16.14 110.08
SI 12:00:00 TS -16.08 109.81
SI 15:00:00 TS -15.95 109.01
SI 16:00:00 TS -15.92 108.75
SI 18:00:00 TS -15.88 108.24
SI 21:00:00 TS -15.82 107.46
SI 23:00:00 TS -15.81 107.00
SI 1957-03-26 00:00:00 TS -15.80 106.81
SI 01:00:00 TS -15.79 106.65
SI 03:00:00 TS -15.78 106.40
SI 06:00:00 TS -15.81 106.14
SI 09:00:00 TS -15.93 105.97
SI 11:00:00 TS -16.03 105.87
SI 12:00:00 TS -16.08 105.80
SI 15:00:00 TS -16.23 105.55
SI 18:00:00 TS -16.39 105.29
SI 21:00:00 TS -16.59 105.04
SI 23:00:00 TS -16.72 104.88
SI 1957-03-27 00:00:00 TS -16.78 104.81
SI 01:00:00 TS -16.84 104.75
SI 03:00:00 TS -16.94 104.64
SI 06:00:00 TS -17.09 104.51
SI 09:00:00 TS -17.28 104.43
SI 11:00:00 TS -17.42 104.40
SI 12:00:00 TS -17.49 104.39
SI 15:00:00 TS -17.74 104.38
SI 18:00:00 TS -18.00 104.38
SI 21:00:00 TS -18.26 104.35
SI 23:00:00 TS -18.42 104.32
SI 1957-03-28 00:00:00 TS -18.49 104.29
SI 03:00:00 TS -18.67 104.20
SI 06:00:00 TS -18.81 104.10
SI 09:00:00 TS -18.92 104.00
SI 11:00:00 TS -18.98 103.93
SI 12:00:00 TS -19.01 103.89
SI 15:00:00 TS -19.08 103.76
SI 18:00:00 TS -19.10 103.62
SI 21:00:00 TS -19.08 103.49
SI 23:00:00 TS -19.03 103.38
SI 1957-03-29 00:00:00 TS -18.99 103.31
SI 03:00:00 TS -18.82 103.03
SI 06:00:00 TS -18.59 102.71
SI 09:00:00 TS -18.31 102.40
SI 11:00:00 TS -18.10 102.20
SI 12:00:00 TS -18.00 102.10
SI 15:00:00 TS -17.69 101.83
SI 18:00:00 TS -17.37 101.59
SI 21:00:00 NR -17.02 101.35
SI 23:00:00 NR -16.80 101.20

Source Information

Agency Information
USA bsh281957.txt
TOKYO
CMA
HKO
NEWDELHI
REUNION
BOM
NADI
WELLINGTON
DS824 s_hem.dat:713:28S
TD9636 cons_worldwide_trop_cyclone_18710101-19891231-006:Line=4971
TD9635
NEUMANN
MLC

All available IBTrACS Data

SEASON BASIN SUBBASIN ISO_TIME_________ NATURE LAT LON DIST2LAND LANDFALL IFLAG USA AGENCY USA ATCF_ID USA LAT USA LON USA SSHS DS824 LAT DS824 LON DS824 STAGE TD9636 LAT TD9636 LON TD9636 STAGE STORM SPEED STORM DIR
Year degrees north degrees east km km degrees north degrees east 1 degrees north degrees east degrees north degrees east kts degrees
1957 SI WA 1957-03-22 23:00:00 NR -14.80 117.50 574 569 __________O___ -1 -14.80 117.50 1 5 0
1957 SI WA 1957-03-23 00:00:00 TS -14.88 117.48 569 568 O________OP___ jtwc_sh SH281957 -14.90 117.50 -1 -14.90 117.50 TC -14.87 117.46 1 5 203
1957 SI WA 03:00:00 TS -15.09 117.37 568 568 P________PP___ SH281957 -15.10 117.41 -1 -15.10 117.41 TC -15.07 117.33 1 5 207
1957 SI WA 06:00:00 TS -15.29 117.27 568 552 O________OP___ jtwc_sh SH281957 -15.30 117.30 -1 -15.30 117.30 TC -15.27 117.22 1 5 206
1957 SI WA 09:00:00 TS -15.49 117.17 552 546 P________PP___ SH281957 -15.50 117.19 -1 -15.50 117.19 TC -15.47 117.13 1 4 204
1957 SI WA 11:00:00 TS -15.62 117.11 546 535 P________PO___ SH281957 -15.63 117.12 -1 -15.63 117.12 TC -15.60 117.10 1 4 200
1957 SI WA 12:00:00 TS -15.69 117.10 535 514 O________OP___ jtwc_sh SH281957 -15.70 117.10 -1 -15.70 117.10 TC -15.67 117.09 1 4 0
1957 SI WA 15:00:00 TS -15.89 117.10 514 492 P________PP___ SH281957 -15.90 117.11 -1 -15.90 117.11 TC -15.87 117.07 1 4 0
1957 SI WA 18:00:00 TS -16.09 117.08 492 473 O________OP___ jtwc_sh SH281957 -16.10 117.10 -1 -16.10 117.10 TC -16.07 117.04 1 4 199
1957 SI WA 21:00:00 TS -16.29 116.96 473 465 P________PP___ SH281957 -16.30 116.97 -1 -16.30 116.97 TC -16.27 116.93 1 5 218
1957 SI WA 23:00:00 TS -16.42 116.80 468 457 P________PO___ SH281957 -16.43 116.81 -1 -16.43 116.81 TC -16.40 116.80 1 6 230
1957 SI WA 1957-03-24 00:00:00 TS -16.49 116.70 458 437 O________OP___ jtwc_sh SH281957 -16.50 116.70 -1 -16.50 116.70 TC -16.48 116.70 1 8 240
1957 SI WA 03:00:00 TS -16.70 116.30 438 420 P________PP___ SH281957 -16.70 116.29 -1 -16.70 116.29 TC -16.71 116.32 1 9 244
1957 SI WA 06:00:00 TS -16.91 115.82 424 411 O________OP___ jtwc_sh SH281957 -16.90 115.80 -1 -16.90 115.80 TC -16.92 115.85 1 10 245
1957 SI WA 09:00:00 TS -17.12 115.35 418 411 P________PP___ SH281957 -17.12 115.35 -1 -17.12 115.35 TC -17.11 115.34 1 10 246
1957 SI WA 11:00:00 TS -17.23 115.03 420 410 P________PO___ SH281957 -17.25 115.05 -1 -17.25 115.05 TC -17.20 115.00 7 9 249
1957 SI WA 12:00:00 TS -17.28 114.89 414 414 O________OP___ jtwc_sh SH281957 -17.30 114.90 -1 -17.30 114.90 TC -17.25 114.87 7 8 255
1957 SI WA 15:00:00 TS -17.38 114.46 426 426 P________PP___ SH281957 -17.39 114.46 -1 -17.39 114.46 TC -17.36 114.47 7 8 262
1957 SI WA 18:00:00 TS -17.40 114.02 454 454 O________OP___ jtwc_sh SH281957 -17.40 114.00 -1 -17.40 114.00 TC -17.41 114.05 7 9 272
1957 SI WA 21:00:00 TS -17.36 113.56 477 477 P________PP___ SH281957 -17.35 113.55 -1 -17.35 113.55 TC -17.37 113.58 7 10 279
1957 SI WA 23:00:00 TS -17.28 113.20 510 510 P________PO___ SH281957 -17.26 113.20 -1 -17.26 113.20 TC -17.30 113.20 2 11 286
1957 SI WA 1957-03-25 00:00:00 TS -17.21 112.99 532 532 O________OP___ jtwc_sh SH281957 -17.20 113.00 -1 -17.20 113.00 TC -17.23 112.98 2 13 290
1957 SI WA 01:00:00 TS -17.13 112.77 551 551 P________PP___ SH281957 -17.12 112.78 -1 -17.12 112.78 TC -17.15 112.76 2 15 292
1957 SI WA 03:00:00 TS -16.93 112.29 587 587 P________PP___ SH281957 -16.92 112.30 -1 -16.92 112.30 TC -16.95 112.27 2 16 293
1957 SI WA 06:00:00 TS -16.60 111.49 648 648 O________OP___ jtwc_sh SH281957 -16.60 111.50 -1 -16.60 111.50 TC -16.61 111.47 2 17 292
1957 SI WA 09:00:00 TS -16.31 110.65 721 721 P________PP___ SH281957 -16.32 110.65 -1 -16.32 110.65 TC -16.28 110.65 2 17 289
1957 SI WA 11:00:00 TS -16.14 110.08 767 767 P________PO___ SH281957 -16.16 110.08 -1 -16.16 110.08 TC -16.10 110.10 4 17 286
1957 SI WA 12:00:00 TS -16.08 109.81 784 784 O________OP___ jtwc_sh SH281957 -16.10 109.80 -1 -16.10 109.80 TC -16.04 109.82 4 16 281
1957 SI WA 15:00:00 TS -15.95 109.01 852 852 P________PP___ SH281957 -15.97 109.04 -1 -15.97 109.04 TC -15.90 108.96 4 15 279
1957 SI WA 16:00:00 TS -15.92 108.75 865 865 P________PP___ SH281957 -15.94 108.79 -1 -15.94 108.79 TC -15.87 108.68 4 15 276
1957 SI WA 18:00:00 TS -15.88 108.24 904 897 O________OP___ jtwc_sh SH281957 -15.90 108.30 -1 -15.90 108.30 TC -15.83 108.13 4 15 274
1957 SI WA 21:00:00 TS -15.82 107.46 901 901 P________PP___ SH281957 -15.84 107.49 -1 -15.84 107.49 TC -15.80 107.40 4 14 273
1957 SI WA 23:00:00 TS -15.81 107.00 908 908 P________PO___ SH281957 -15.81 107.00 -1 -15.81 107.00 TC -15.80 107.00 1 12 272
1957 SI WA 1957-03-26 00:00:00 TS -15.80 106.81 912 912 O________OP___ jtwc_sh SH281957 -15.80 106.80 -1 -15.80 106.80 TC -15.79 106.84 1 10 273
1957 SI WA 01:00:00 TS -15.79 106.65 914 914 P________PP___ SH281957 -15.79 106.63 -1 -15.79 106.63 TC -15.79 106.70 1 8 273
1957 SI WA 03:00:00 TS -15.78 106.40 919 919 P________PP___ SH281957 -15.77 106.36 -1 -15.77 106.36 TC -15.80 106.47 1 6 267
1957 SI WA 06:00:00 TS -15.81 106.14 925 925 O________OP___ jtwc_sh SH281957 -15.80 106.10 -1 -15.80 106.10 TC -15.84 106.22 1 4 250
1957 SI WA 09:00:00 TS -15.93 105.97 938 938 P________PP___ SH281957 -15.93 105.93 -1 -15.93 105.93 TC -15.92 106.03 1 4 231
1957 SI WA 11:00:00 TS -16.03 105.87 952 952 P________PO___ SH281957 -16.04 105.85 -1 -16.04 105.85 TC -16.00 105.90 1 4 226
1957 SI WA 12:00:00 TS -16.08 105.80 965 965 O________OP___ jtwc_sh SH281957 -16.10 105.80 -1 -16.10 105.80 TC -16.04 105.81 1 5 237
1957 SI WA 15:00:00 TS -16.23 105.55 981 981 P________PP___ SH281957 -16.24 105.56 -1 -16.24 105.56 TC -16.19 105.53 1 6 238
1957 SI WA 18:00:00 TS -16.39 105.29 1011 1011 O________OP___ jtwc_sh SH281957 -16.40 105.30 -1 -16.40 105.30 TC -16.38 105.27 1 6 234
1957 SI WA 21:00:00 TS -16.59 105.04 1041 1041 P________PP___ SH281957 -16.60 105.04 -1 -16.60 105.04 TC -16.57 105.04 1 6 230
1957 SI WA 23:00:00 TS -16.72 104.88 1054 1054 P________PO___ SH281957 -16.74 104.87 -1 -16.74 104.87 TC -16.70 104.90 1 6 227
1957 SI WA 1957-03-27 00:00:00 TS -16.78 104.81 1066 1066 O________OP___ jtwc_sh SH281957 -16.80 104.80 -1 -16.80 104.80 TC -16.75 104.84 1 5 227
1957 SI WA 01:00:00 TS -16.84 104.75 1068 1068 P________PP___ SH281957 -16.85 104.73 -1 -16.85 104.73 TC -16.81 104.78 1 5 227
1957 SI WA 03:00:00 TS -16.94 104.64 1081 1081 P________PP___ SH281957 -16.95 104.62 -1 -16.95 104.62 TC -16.92 104.67 1 4 221
1957 SI WA 06:00:00 TS -17.09 104.51 1105 1105 O________OP___ jtwc_sh SH281957 -17.10 104.50 -1 -17.10 104.50 TC -17.08 104.54 1 4 210
1957 SI WA 09:00:00 TS -17.28 104.43 1129 1122 P________PP___ SH281957 -17.28 104.43 -1 -17.28 104.43 TC -17.27 104.45 1 4 198
1957 SI WA 11:00:00 TS -17.42 104.40 1122 1116 P________PO___ SH281957 -17.42 104.41 -1 -17.42 104.41 TC -17.40 104.40 1 4 189
1957 SI WA 12:00:00 TS -17.49 104.39 1116 1105 O________OP___ jtwc_sh SH281957 -17.50 104.40 -1 -17.50 104.40 TC -17.48 104.38 1 5 0
1957 SI WA 15:00:00 TS -17.74 104.38 1105 1088 P________PP___ SH281957 -17.74 104.40 -1 -17.74 104.40 TC -17.73 104.35 1 5 0
1957 SI WA 18:00:00 TS -18.00 104.38 1088 1077 O________OP___ jtwc_sh SH281957 -18.00 104.40 -1 -18.00 104.40 TC -18.00 104.34 1 5 184
1957 SI WA 21:00:00 TS -18.26 104.35 1071 1071 P________PP___ SH281957 -18.26 104.37 -1 -18.26 104.37 TC -18.25 104.32 1 5 188
1957 SI WA 23:00:00 TS -18.42 104.32 1075 1070 P________PO___ SH281957 -18.43 104.33 -1 -18.43 104.33 TC -18.40 104.30 7 5 193
1957 SI WA 1957-03-28 00:00:00 TS -18.49 104.29 1070 1065 O________OP___ jtwc_sh SH281957 -18.50 104.30 -1 -18.50 104.30 TC -18.47 104.28 7 4 202
1957 SI WA 03:00:00 TS -18.67 104.20 1070 1070 P________PP___ SH281957 -18.67 104.21 -1 -18.67 104.21 TC -18.66 104.20 7 4 211
1957 SI WA 06:00:00 TS -18.81 104.10 1075 1070 O________OP___ jtwc_sh SH281957 -18.80 104.10 -1 -18.80 104.10 TC -18.82 104.09 7 3 217
1957 SI WA 09:00:00 TS -18.92 104.00 1080 1075 P________PP___ SH281957 -18.91 104.01 -1 -18.91 104.01 TC -18.94 103.98 7 3 223
1957 SI WA 11:00:00 TS -18.98 103.93 1085 1085 P________PO___ SH281957 -18.97 103.94 -1 -18.97 103.94 TC -19.00 103.90 1 3 231
1957 SI WA 12:00:00 TS -19.01 103.89 1085 1085 O________OP___ jtwc_sh SH281957 -19.00 103.90 -1 -19.00 103.90 TC -19.03 103.87 1 3 238
1957 SI WA 15:00:00 TS -19.08 103.76 1090 1090 P________PP___ SH281957 -19.07 103.76 -1 -19.07 103.76 TC -19.10 103.78 1 3 250
1957 SI WA 18:00:00 TS -19.10 103.62 1109 1109 O________OP___ jtwc_sh SH281957 -19.10 103.60 -1 -19.10 103.60 TC -19.11 103.67 1 3 270
1957 SI WA 21:00:00 TS -19.08 103.49 1119 1119 P________PP___ SH281957 -19.09 103.47 -1 -19.09 103.47 TC -19.07 103.53 1 3 289
1957 SI WA 23:00:00 TS -19.03 103.38 1133 1133 P________PO___ SH281957 -19.04 103.37 -1 -19.04 103.37 TC -19.00 103.40 7 4 298
1957 SI WA 1957-03-29 00:00:00 TS -18.99 103.31 1143 1143 O________OP___ jtwc_sh SH281957 -19.00 103.30 -1 -19.00 103.30 TC -18.96 103.32 7 6 302
1957 SI WA 03:00:00 TS -18.82 103.03 1181 1181 P________PP___ SH281957 -18.84 103.02 -1 -18.84 103.02 TC -18.79 103.04 7 7 305
1957 SI WA 06:00:00 TS -18.59 102.71 1218 1218 O________OP___ jtwc_sh SH281957 -18.60 102.70 -1 -18.60 102.70 TC -18.57 102.73 7 8 311
1957 SI WA 09:00:00 TS -18.31 102.40 1261 1261 P________PP___ SH281957 -18.31 102.39 -1 -18.31 102.39 TC -18.30 102.41 7 8 315
1957 SI WA 11:00:00 TS -18.10 102.20 1281 1275 P________PO___ SH281957 -18.11 102.19 -1 -18.11 102.19 TC -18.10 102.20 1 8 318
1957 SI WA 12:00:00 TS -18.00 102.10 1275 1252 O________OP___ jtwc_sh SH281957 -18.00 102.10 -1 -18.00 102.10 TC -18.00 102.10 1 8 320
1957 SI WA 15:00:00 TS -17.69 101.83 1256 1234 P________PP___ SH281957 -17.70 101.84 -1 -17.70 101.84 TC -17.68 101.83 1 8 322
1957 SI WA 18:00:00 TS -17.37 101.59 1234 1204 O________OP___ jtwc_sh SH281957 -17.40 101.60 -1 -17.40 101.60 TC -17.36 101.58 1 8 325
1957 SI WA 21:00:00 NR -17.02 101.35 1204 1194 __________P___ SH281957 -1 TC -17.02 101.35 1 8 327
1957 SI WA 23:00:00 NR -16.80 101.20 1194 __________O___ SH281957 -1 TC -16.80 101.20 7 8 328